Time;durP1;ratioP1;P1;durP2;ratioP2;P2;SDS_P1;SDS_P2;PMS_P1;PMS_P2;Temp;Humidity;BMP_temperature;BMP_pressure;BME280_temperature;BME280_humidity;BME280_pressure;Samples;Min_cycle;Max_cycle;Signal;HPM_P1;HPM_P2
2021/04/14 00:02:32;;;;;;;61.33;8.48;;;0.00;1.00;;;;;;5135789;27;20697;-67
2021/04/14 00:04:59;;;;;;;63.33;9.57;;;-0.10;1.00;;;;;;5135619;27;20214;-67
2021/04/14 00:07:26;;;;;;;61.03;8.07;;;-0.10;1.00;;;;;;5135324;27;20207;-67
2021/04/14 00:09:52;;;;;;;62.53;8.05;;;-0.10;1.00;;;;;;5135274;27;20218;-67
2021/04/14 00:12:19;;;;;;;64.55;7.70;;;-0.20;1.00;;;;;;5135248;27;20849;-67
2021/04/14 00:14:46;;;;;;;65.65;8.60;;;-0.20;1.00;;;;;;5135123;27;20259;-67
2021/04/14 00:17:12;;;;;;;61.05;8.00;;;-0.30;1.00;;;;;;5134988;27;20209;-67
2021/04/14 00:19:40;;;;;;;62.50;7.85;;;-0.30;1.00;;;;;;5135039;27;20597;-67
2021/04/14 00:22:07;;;;;;;61.65;8.07;;;-0.30;1.00;;;;;;5135241;27;20578;-67
2021/04/14 00:24:36;;;;;;;63.85;7.95;;;-0.40;1.00;;;;;;5135079;27;20203;-67
2021/04/14 00:27:03;;;;;;;62.95;7.70;;;-0.40;1.00;;;;;;5134852;27;20580;-67
2021/04/14 00:29:29;;;;;;;64.40;7.43;;;-0.50;1.00;;;;;;5133363;27;20225;-68
2021/04/14 00:31:55;;;;;;;61.70;7.53;;;-0.50;1.00;;;;;;5134617;27;20238;-66
2021/04/14 00:34:22;;;;;;;60.28;7.47;;;-0.40;1.00;;;;;;5135089;27;20209;-67
2021/04/14 00:36:49;;;;;;;62.47;8.48;;;-0.40;1.00;;;;;;5134780;27;20290;-67
2021/04/14 00:39:19;;;;;;;61.40;7.70;;;-0.40;1.00;;;;;;5134798;27;20227;-67
2021/04/14 00:41:47;;;;;;;61.65;7.82;;;-0.40;1.00;;;;;;5134713;27;20340;-67
2021/04/14 00:44:14;;;;;;;59.78;7.53;;;-0.30;1.00;;;;;;5134880;27;20245;-67
2021/04/14 00:46:40;;;;;;;60.35;7.13;;;-0.40;1.00;;;;;;5134753;27;20294;-67
2021/04/14 00:49:07;;;;;;;61.25;8.02;;;-0.40;1.00;;;;;;5134704;27;20222;-67
2021/04/14 00:51:34;;;;;;;58.78;7.18;;;-0.40;1.00;;;;;;5134482;27;20289;-68
2021/04/14 00:54:00;;;;;;;59.97;7.00;;;-0.40;1.00;;;;;;5134560;27;20648;-67
2021/04/14 00:56:28;;;;;;;60.25;7.28;;;-0.40;1.00;;;;;;5134459;27;20214;-67
2021/04/14 00:58:54;;;;;;;62.70;7.68;;;-0.40;1.00;;;;;;5134186;27;20794;-66
2021/04/14 01:01:21;;;;;;;61.40;8.00;;;-0.40;1.00;;;;;;5132922;27;20355;-67
2021/04/14 01:03:48;;;;;;;60.30;7.68;;;-0.40;1.00;;;;;;5134272;27;20286;-68
2021/04/14 01:06:17;;;;;;;61.95;8.90;;;-0.40;1.00;;;;;;5134423;27;20234;-67
2021/04/14 01:08:44;;;;;;;61.25;7.50;;;-0.40;1.00;;;;;;5134027;27;20314;-67
2021/04/14 01:11:12;;;;;;;60.60;7.72;;;-0.40;1.00;;;;;;5134245;27;20235;-67
2021/04/14 01:13:40;;;;;;;61.75;8.20;;;-0.40;1.00;;;;;;5134340;27;20299;-68
2021/04/14 01:16:06;;;;;;;59.67;6.78;;;-0.50;1.00;;;;;;5134338;27;20632;-67
2021/04/14 01:18:36;;;;;;;61.05;7.85;;;-0.50;1.00;;;;;;5134077;27;20309;-66
2021/04/14 01:21:04;;;;;;;62.25;6.80;;;-0.50;1.00;;;;;;5133995;27;20300;-67
2021/04/14 01:23:32;;;;;;;60.67;7.43;;;-0.60;1.00;;;;;;5133589;27;20271;-66
2021/04/14 01:25:59;;;;;;;61.10;7.65;;;-0.60;1.00;;;;;;5133975;27;20290;-66
2021/04/14 01:28:29;;;;;;;62.13;7.88;;;-0.60;1.00;;;;;;5133988;27;20771;-67
2021/04/14 01:30:56;;;;;;;62.85;7.90;;;-0.60;1.00;;;;;;5133932;27;20238;-67
2021/04/14 01:33:25;;;;;;;62.50;8.75;;;-0.60;1.00;;;;;;5132620;27;20286;-67
2021/04/14 01:35:52;;;;;;;63.78;8.32;;;-0.60;1.00;;;;;;5133231;27;20663;-67
2021/04/14 01:38:18;;;;;;;61.90;7.75;;;-0.70;1.00;;;;;;5133464;27;20301;-68
2021/04/14 01:40:46;;;;;;;61.75;7.40;;;-0.70;1.00;;;;;;5133894;27;20232;-67
2021/04/14 01:43:12;;;;;;;60.75;7.70;;;-0.70;1.00;;;;;;5133588;27;20290;-67
2021/04/14 01:45:41;;;;;;;60.55;6.70;;;-0.80;1.00;;;;;;5133574;27;20203;-67
2021/04/14 01:48:08;;;;;;;62.50;7.30;;;-0.80;1.00;;;;;;5133531;27;20242;-67
2021/04/14 01:50:35;;;;;;;60.65;7.05;;;-0.90;1.00;;;;;;5133324;27;20195;-67
2021/04/14 01:53:03;;;;;;;60.75;7.35;;;-0.90;1.00;;;;;;5133574;27;20213;-67
2021/04/14 01:55:30;;;;;;;61.00;7.57;;;-1.00;1.00;;;;;;5133336;27;20754;-66
2021/04/14 01:57:58;;;;;;;62.17;7.75;;;-1.00;1.00;;;;;;5133525;27;20290;-67
2021/04/14 02:00:31;;;;;;;61.60;7.68;;;-1.00;1.00;;;;;;5133061;27;20219;-67
2021/04/14 02:02:58;;;;;;;61.60;8.02;;;-1.00;1.00;;;;;;5133134;27;20670;-67
2021/04/14 02:05:28;;;;;;;60.35;7.25;;;-1.10;1.00;;;;;;5131604;27;20285;-67
2021/04/14 02:07:54;;;;;;;60.70;7.40;;;-1.10;1.00;;;;;;5133340;27;20289;-67
2021/04/14 02:10:23;;;;;;;59.90;8.00;;;-1.10;1.00;;;;;;5133052;27;20245;-67
2021/04/14 02:12:49;;;;;;;61.08;7.97;;;-1.10;1.00;;;;;;5133019;27;20214;-67
2021/04/14 02:15:25;;;;;;;62.30;7.18;;;-1.20;1.00;;;;;;5132913;27;20285;-68
2021/04/14 02:17:52;;;;;;;60.40;7.75;;;-1.10;1.00;;;;;;5133237;27;20721;-67
2021/04/14 02:20:19;;;;;;;62.20;7.57;;;-1.20;1.00;;;;;;5133052;27;20317;-67
2021/04/14 02:22:45;;;;;;;62.78;8.55;;;-1.20;1.00;;;;;;5133058;27;20344;-68
2021/04/14 02:25:14;;;;;;;65.85;9.15;;;-1.20;1.00;;;;;;5132796;27;20243;-68
2021/04/14 02:27:41;;;;;;;65.18;8.57;;;-1.20;1.00;;;;;;5132801;27;20202;-67
2021/04/14 02:30:10;;;;;;;61.72;7.63;;;-1.20;1.00;;;;;;5132617;27;20309;-68
2021/04/14 02:32:38;;;;;;;65.55;8.90;;;-1.20;1.00;;;;;;5132892;27;20285;-66
2021/04/14 02:35:05;;;;;;;64.30;8.13;;;-1.20;1.00;;;;;;5132810;27;20289;-67
2021/04/14 02:37:31;;;;;;;62.78;8.10;;;-1.20;1.00;;;;;;5131463;27;20293;-67
2021/04/14 02:39:57;;;;;;;61.78;8.05;;;-1.20;1.00;;;;;;5132480;27;20363;-68
2021/04/14 02:42:24;;;;;;;62.22;7.40;;;-1.20;1.00;;;;;;5132478;27;20239;-67
2021/04/14 02:44:50;;;;;;;62.15;8.20;;;-1.20;1.00;;;;;;5132635;27;20214;-67
2021/04/14 02:47:16;;;;;;;64.72;8.75;;;-1.20;1.00;;;;;;5132781;27;20207;-67
2021/04/14 02:49:44;;;;;;;60.30;7.28;;;-1.20;1.00;;;;;;5132570;27;20394;-67
2021/04/14 02:52:10;;;;;;;64.13;8.63;;;-1.20;1.00;;;;;;5132551;27;20297;-68
2021/04/14 02:54:36;;;;;;;65.25;8.13;;;-1.20;1.00;;;;;;5132760;27;20297;-67
2021/04/14 02:57:03;;;;;;;61.50;8.88;;;-1.20;1.00;;;;;;5132531;27;20632;-67
2021/04/14 02:59:29;;;;;;;63.10;8.27;;;-1.20;1.00;;;;;;5132464;27;20782;-67
2021/04/14 03:01:55;;;;;;;63.30;7.35;;;-1.20;1.00;;;;;;5132462;27;20290;-67
2021/04/14 03:04:22;;;;;;;59.65;7.13;;;-1.20;1.00;;;;;;5133108;27;20293;-68
2021/04/14 03:06:49;;;;;;;62.85;7.75;;;-1.20;1.00;;;;;;5132629;27;20238;-67
2021/04/14 03:09:15;;;;;;;60.35;7.40;;;-1.20;1.00;;;;;;5132236;27;20666;-67
2021/04/14 03:11:42;;;;;;;59.85;7.20;;;-1.30;1.00;;;;;;5132362;27;20198;-66
2021/04/14 03:14:08;;;;;;;63.72;8.40;;;-1.30;1.00;;;;;;5132146;27;20298;-67
2021/04/14 03:16:34;;;;;;;62.05;8.57;;;-1.30;1.00;;;;;;5135964;27;20237;-67
2021/04/14 03:19:01;;;;;;;61.83;7.47;;;-1.30;1.00;;;;;;5136406;27;20265;-67
2021/04/14 03:21:27;;;;;;;62.83;8.45;;;-1.30;1.00;;;;;;5136936;27;20231;-67
2021/04/14 03:23:54;;;;;;;62.70;8.35;;;-1.40;1.00;;;;;;5136641;27;20738;-68
2021/04/14 03:26:22;;;;;;;61.22;7.78;;;-1.40;1.00;;;;;;5136584;27;20293;-67
2021/04/14 03:28:48;;;;;;;64.40;8.45;;;-1.40;1.00;;;;;;5136661;27;20657;-67
2021/04/14 03:31:15;;;;;;;59.85;7.03;;;-1.50;1.00;;;;;;5136833;27;20279;-68
2021/04/14 03:33:41;;;;;;;65.72;7.30;;;-1.50;1.00;;;;;;5136632;27;20231;-68
2021/04/14 03:36:08;;;;;;;67.63;7.65;;;-1.50;1.00;;;;;;5136815;27;20244;-67
2021/04/14 03:38:34;;;;;;;61.92;7.57;;;-1.60;1.00;;;;;;5136173;27;20587;-67
2021/04/14 03:41:02;;;;;;;64.95;7.72;;;-1.60;1.00;;;;;;5136814;27;20223;-67
2021/04/14 03:43:28;;;;;;;64.32;8.07;;;-1.60;1.00;;;;;;5136330;27;20207;-68
2021/04/14 03:45:58;;;;;;;62.35;7.47;;;-1.60;1.00;;;;;;5136423;27;20207;-67
2021/04/14 03:48:24;;;;;;;62.05;8.02;;;-1.70;1.00;;;;;;5135760;27;20730;-67
2021/04/14 03:50:51;;;;;;;60.90;8.48;;;-1.70;1.00;;;;;;5135699;27;20246;-67
2021/04/14 03:53:23;;;;;;;60.10;7.78;;;-1.70;1.00;;;;;;5135763;27;20693;-66
2021/04/14 03:55:54;;;;;;;60.08;7.70;;;-1.70;1.00;;;;;;5135965;27;20206;-67
2021/04/14 03:58:21;;;;;;;60.42;7.57;;;-1.70;1.00;;;;;;5135829;27;20234;-67
2021/04/14 04:00:50;;;;;;;60.28;7.05;;;-1.70;1.00;;;;;;5135999;27;20655;-66
2021/04/14 04:03:17;;;;;;;61.80;7.07;;;-1.70;1.00;;;;;;5135672;27;20210;-67
2021/04/14 04:05:44;;;;;;;63.13;7.63;;;-1.70;1.00;;;;;;5135551;27;20206;-66
2021/04/14 04:08:11;;;;;;;60.40;7.00;;;-1.80;1.00;;;;;;5135568;27;20207;-67
2021/04/14 04:10:37;;;;;;;60.78;7.65;;;-1.80;1.00;;;;;;5135465;27;20230;-67
2021/04/14 04:13:04;;;;;;;64.38;9.07;;;-1.80;1.00;;;;;;5135583;27;20655;-67
2021/04/14 04:15:32;;;;;;;59.72;7.10;;;-1.80;1.00;;;;;;5135406;27;20239;-67
2021/04/14 04:17:58;;;;;;;61.38;7.85;;;-1.80;1.00;;;;;;5135356;27;20286;-67
2021/04/14 04:20:24;;;;;;;63.05;7.35;;;-1.90;1.00;;;;;;5134918;27;20355;-67
2021/04/14 04:22:51;;;;;;;63.80;7.80;;;-1.90;1.00;;;;;;5135378;27;20262;-67
2021/04/14 04:25:17;;;;;;;60.55;7.80;;;-1.90;1.00;;;;;;5135462;27;20230;-67
2021/04/14 04:27:44;;;;;;;62.78;8.68;;;-1.90;1.00;;;;;;5134696;27;20286;-67
2021/04/14 04:30:11;;;;;;;62.75;8.30;;;-1.90;1.00;;;;;;5135183;27;20649;-67
2021/04/14 04:32:38;;;;;;;61.58;8.75;;;-1.90;1.00;;;;;;5134995;27;20225;-67
2021/04/14 04:35:08;;;;;;;62.85;8.52;;;-1.90;1.00;;;;;;5135022;27;20207;-67
2021/04/14 04:37:34;;;;;;;62.10;7.70;;;-1.90;1.00;;;;;;5134883;27;20214;-67
2021/04/14 04:40:01;;;;;;;60.03;7.10;;;-1.90;1.00;;;;;;5134914;27;20705;-67
2021/04/14 04:42:27;;;;;;;61.42;7.90;;;-1.90;1.00;;;;;;5135061;27;20203;-67
2021/04/14 04:44:54;;;;;;;60.90;7.90;;;-1.80;1.00;;;;;;5134939;27;20211;-67
2021/04/14 04:47:20;;;;;;;62.80;7.70;;;-1.80;1.00;;;;;;5134886;27;20306;-67
2021/04/14 04:49:47;;;;;;;61.75;7.90;;;-1.80;1.00;;;;;;5134791;27;20306;-66
2021/04/14 04:52:13;;;;;;;60.63;7.35;;;-1.70;1.00;;;;;;5134663;27;20198;-67
2021/04/14 04:54:40;;;;;;;61.35;7.60;;;-1.70;1.00;;;;;;5134900;27;20238;-67
2021/04/14 04:57:07;;;;;;;63.20;8.02;;;-1.70;1.00;;;;;;5134732;27;20294;-67
2021/04/14 04:59:33;;;;;;;61.75;7.22;;;-1.70;1.00;;;;;;5134588;27;20661;-67
2021/04/14 05:02:00;;;;;;;60.83;7.57;;;-1.60;1.00;;;;;;5134342;27;20319;-67
2021/04/14 05:04:26;;;;;;;63.38;8.52;;;-1.60;1.00;;;;;;5134461;27;20246;-68
2021/04/14 05:06:54;;;;;;;62.03;8.30;;;-1.60;1.00;;;;;;5134557;27;20209;-67
2021/04/14 05:09:20;;;;;;;61.80;8.15;;;-1.60;1.00;;;;;;5134323;27;20263;-67
2021/04/14 05:11:47;;;;;;;62.28;8.13;;;-1.50;1.00;;;;;;5134504;27;20282;-66
2021/04/14 05:14:14;;;;;;;62.50;7.82;;;-1.50;1.00;;;;;;5134210;27;20314;-67
2021/04/14 05:16:40;;;;;;;63.85;9.52;;;-1.50;1.00;;;;;;5134128;27;20210;-67
2021/04/14 05:19:07;;;;;;;62.83;8.77;;;-1.50;1.00;;;;;;5134315;27;20254;-67
2021/04/14 05:21:35;;;;;;;61.38;8.63;;;-1.40;1.00;;;;;;5134296;27;20384;-66
2021/04/14 05:24:03;;;;;;;61.33;7.65;;;-1.40;1.00;;;;;;5134181;27;20198;-67
2021/04/14 05:26:29;;;;;;;61.75;8.23;;;-1.30;1.00;;;;;;5134241;27;20230;-67
2021/04/14 05:28:56;;;;;;;60.92;8.23;;;-1.30;1.00;;;;;;5133891;27;20310;-67
2021/04/14 05:31:28;;;;;;;63.30;8.38;;;-1.30;1.00;;;;;;5134340;27;20286;-67
2021/04/14 05:33:55;;;;;;;59.35;7.80;;;-1.30;1.00;;;;;;5134091;27;20202;-67
2021/04/14 05:36:21;;;;;;;66.40;7.78;;;-1.20;1.00;;;;;;5134030;27;20207;-67
2021/04/14 05:38:48;;;;;;;62.55;8.00;;;-1.20;1.00;;;;;;5133196;27;20237;-67
2021/04/14 05:41:15;;;;;;;65.25;8.63;;;-1.10;1.00;;;;;;5133845;27;20276;-67
2021/04/14 05:43:41;;;;;;;60.97;7.43;;;-1.00;1.00;;;;;;5133439;27;20286;-67
2021/04/14 05:46:09;;;;;;;62.08;8.25;;;-1.00;1.00;;;;;;5133563;27;20246;-67
2021/04/14 05:48:37;;;;;;;61.92;8.60;;;-0.90;1.00;;;;;;5133703;27;20300;-67
2021/04/14 05:51:05;;;;;;;63.33;8.98;;;-0.80;1.00;;;;;;5133501;27;20286;-67
2021/04/14 05:53:31;;;;;;;61.25;8.40;;;-0.60;1.00;;;;;;5133346;27;20334;-67
2021/04/14 05:55:58;;;;;;;61.08;8.20;;;-0.50;1.00;;;;;;5133507;27;20203;-67
2021/04/14 05:58:25;;;;;;;62.53;9.38;;;-0.40;1.00;;;;;;5133406;27;20375;-67
2021/04/14 06:00:51;;;;;;;61.70;8.48;;;-0.30;1.00;;;;;;5133575;27;20253;-68
2021/04/14 06:03:18;;;;;;;62.60;8.82;;;-0.20;1.00;;;;;;5133385;27;20632;-67
2021/04/14 06:05:44;;;;;;;62.50;8.85;;;-0.20;1.00;;;;;;5133300;27;20209;-67
2021/04/14 06:08:10;;;;;;;62.10;9.10;;;-0.10;1.00;;;;;;5133311;27;20294;-67
2021/04/14 06:10:37;;;;;;;65.47;8.30;;;-0.10;1.00;;;;;;5133292;27;20294;-67
2021/04/14 06:13:03;;;;;;;59.63;7.82;;;-0.10;1.00;;;;;;5133009;27;20209;-67
2021/04/14 06:15:33;;;;;;;60.47;7.25;;;0.00;1.00;;;;;;5133460;27;20643;-67
2021/04/14 06:18:01;;;;;;;61.05;8.50;;;0.00;1.00;;;;;;5133228;27;20213;-67
2021/04/14 06:20:29;;;;;;;61.92;8.00;;;0.00;1.00;;;;;;5133023;27;20592;-67
2021/04/14 06:22:58;;;;;;;61.97;8.18;;;0.10;1.00;;;;;;5133068;27;20202;-68
2021/04/14 06:25:25;;;;;;;60.65;7.63;;;0.10;1.00;;;;;;5132952;27;20210;-68
2021/04/14 06:27:57;;;;;;;61.30;8.02;;;0.10;1.00;;;;;;5132970;27;20717;-68
2021/04/14 06:30:25;;;;;;;61.55;8.13;;;0.10;1.00;;;;;;5133066;27;20219;-67
2021/04/14 06:32:52;;;;;;;62.08;8.43;;;0.20;1.00;;;;;;5133003;27;20213;-67
2021/04/14 06:35:21;;;;;;;64.78;9.70;;;0.30;1.00;;;;;;5132913;27;20244;-67
2021/04/14 06:37:48;;;;;;;61.95;8.10;;;0.40;1.00;;;;;;5132746;27;20625;-67
2021/04/14 06:40:39;;;;;;;61.17;7.35;;;0.50;1.00;;;;;;5132672;27;20313;-67
2021/04/14 06:43:18;;;;;;;62.63;8.30;;;0.70;1.00;;;;;;5132904;27;20203;-67
2021/04/14 06:45:48;;;;;;;61.33;7.25;;;0.90;1.00;;;;;;5132778;27;20230;-68
2021/04/14 06:48:33;;;;;;;60.50;7.70;;;1.20;1.00;;;;;;5132788;27;20262;-68
2021/04/14 06:51:03;;;;;;;60.80;7.65;;;1.40;1.00;;;;;;5132775;27;20213;-68
2021/04/14 06:53:45;;;;;;;61.47;7.80;;;1.50;1.00;;;;;;5132454;27;20298;-67
2021/04/14 06:56:16;;;;;;;60.95;7.20;;;1.70;1.00;;;;;;5132575;27;20211;-67
2021/04/14 06:58:45;;;;;;;61.42;8.35;;;1.80;1.00;;;;;;5132480;27;20271;-67
2021/04/14 07:01:14;;;;;;;60.22;7.13;;;1.90;1.00;;;;;;5132433;27;20222;-67
2021/04/14 07:03:48;;;;;;;59.90;7.38;;;2.10;1.00;;;;;;5132620;27;20203;-67
2021/04/14 07:06:19;;;;;;;61.08;7.95;;;2.20;1.00;;;;;;5132676;27;20207;-67
2021/04/14 07:08:54;;;;;;;61.45;7.93;;;2.30;1.00;;;;;;5132467;27;20346;-67
2021/04/14 07:11:22;;;;;;;63.42;9.00;;;2.40;1.00;;;;;;5132503;27;20566;-67
2021/04/14 07:13:49;;;;;;;61.40;7.38;;;2.50;1.00;;;;;;5132691;27;20203;-67
2021/04/14 07:16:33;;;;;;;59.35;6.40;;;2.70;1.00;;;;;;5132429;27;20744;-68
2021/04/14 07:19:06;;;;;;;61.15;7.80;;;3.80;1.00;;;;;;5132526;27;20254;-68
2021/04/14 07:21:38;;;;;;;62.67;8.52;;;5.00;1.00;;;;;;5132325;27;20255;-68
2021/04/14 07:24:11;;;;;;;63.78;9.60;;;5.80;1.00;;;;;;5132646;27;20187;-68
2021/04/14 07:26:42;;;;;;;63.78;8.68;;;6.40;1.00;;;;;;5132638;27;20585;-68
2021/04/14 07:29:31;;;;;;;61.22;8.80;;;7.00;1.00;;;;;;5132381;27;20222;-68
2021/04/14 07:32:08;;;;;;;64.75;7.90;;;7.40;1.00;;;;;;5132234;27;20208;-68
2021/04/14 07:34:51;;;;;;;64.18;7.13;;;7.60;1.00;;;;;;5132566;27;20208;-67
2021/04/14 07:37:27;;;;;;;60.70;6.93;;;7.80;1.00;;;;;;5132387;27;20208;-68
2021/04/14 07:40:06;;;;;;;63.03;7.50;;;7.80;1.00;;;;;;5132373;27;20533;-68
2021/04/14 07:42:40;;;;;;;62.70;7.23;;;7.90;1.00;;;;;;5132077;27;20479;-68
2021/04/14 07:45:17;;;;;;;61.45;7.20;;;8.00;1.00;;;;;;5132437;27;20456;-68
2021/04/14 07:47:48;;;;;;;59.77;6.03;;;8.00;1.00;;;;;;5132477;27;20204;-68
2021/04/14 07:50:18;;;;;;;60.90;7.50;;;8.00;1.00;;;;;;5132088;27;20469;-68
2021/04/14 07:52:45;;;;;;;60.53;6.10;;;8.10;1.00;;;;;;5131972;27;20442;-68
2021/04/14 07:55:24;;;;;;;59.97;6.83;;;8.20;1.00;;;;;;5131985;27;20619;-67
2021/04/14 07:57:50;;;;;;;61.50;7.17;;;8.20;1.00;;;;;;5132111;27;20963;-68
2021/04/14 08:00:19;;;;;;;58.57;6.00;;;8.20;1.00;;;;;;5131996;27;20472;-68
2021/04/14 08:02:46;;;;;;;64.07;6.70;;;8.20;1.00;;;;;;5133782;27;20528;-68
2021/04/14 08:05:26;;;;;;;61.70;6.03;;;8.10;1.00;;;;;;5135771;27;20542;-68
2021/04/14 08:07:52;;;;;;;61.10;6.87;;;7.90;1.00;;;;;;5135962;27;20457;-68
2021/04/14 08:10:22;;;;;;;59.20;5.88;;;7.50;1.00;;;;;;5135670;27;20568;-68
2021/04/14 08:13:00;;;;;;;60.42;5.75;;;7.20;1.00;;;;;;5135552;27;20240;-68
2021/04/14 08:15:32;;;;;;;58.08;5.15;;;6.90;1.00;;;;;;5135517;27;20678;-68
2021/04/14 08:18:18;;;;;;;58.50;5.20;;;6.60;1.00;;;;;;5135408;27;20298;-67
2021/04/14 08:20:49;;;;;;;61.58;5.70;;;6.40;1.00;;;;;;5135492;27;20305;-68
2021/04/14 08:23:21;;;;;;;60.13;6.25;;;6.30;1.00;;;;;;5135509;27;20210;-68
2021/04/14 08:25:50;;;;;;;59.90;5.03;;;6.30;1.00;;;;;;5135403;27;20727;-67
2021/04/14 08:28:27;;;;;;;63.20;5.93;;;6.20;1.00;;;;;;5135065;27;20639;-67
2021/04/14 08:31:05;;;;;;;59.72;5.68;;;6.20;1.00;;;;;;5135258;27;20309;-67
2021/04/14 08:33:32;;;;;;;60.42;6.03;;;6.20;1.00;;;;;;5135213;27;20210;-67
2021/04/14 08:36:12;;;;;;;58.53;4.72;;;6.20;1.00;;;;;;5135154;27;20290;-67
2021/04/14 08:38:39;;;;;;;59.47;5.63;;;6.30;1.00;;;;;;5135037;27;20317;-67
2021/04/14 08:41:06;;;;;;;58.55;5.28;;;6.40;1.00;;;;;;5135060;27;20277;-67
2021/04/14 08:43:38;;;;;;;64.15;6.75;;;6.50;1.00;;;;;;5134780;27;20675;-67
2021/04/14 08:46:12;;;;;;;61.90;5.75;;;6.60;1.00;;;;;;5134752;27;20199;-67
2021/04/14 08:48:42;;;;;;;60.15;5.70;;;6.80;1.00;;;;;;5134968;27;20325;-67
2021/04/14 08:51:11;;;;;;;61.30;6.03;;;6.90;1.00;;;;;;5134940;27;20667;-67
2021/04/14 08:53:40;;;;;;;63.78;5.65;;;7.20;1.00;;;;;;5134581;27;20234;-67
2021/04/14 08:56:07;;;;;;;61.25;5.45;;;7.40;1.00;;;;;;5134775;27;20203;-67
2021/04/14 08:58:33;;;;;;;59.63;6.03;;;7.70;1.00;;;;;;5134777;27;20223;-68
2021/04/14 09:01:00;;;;;;;60.03;5.47;;;7.90;1.00;;;;;;5134542;27;20796;-67
2021/04/14 09:03:30;;;;;;;59.28;5.07;;;8.30;1.00;;;;;;5134444;27;20205;-67
2021/04/14 09:05:57;;;;;;;59.15;5.47;;;8.50;1.00;;;;;;5134299;27;20290;-68
2021/04/14 09:08:30;;;;;;;60.65;5.88;;;8.60;1.00;;;;;;5134398;27;20237;-68
2021/04/14 09:10:59;;;;;;;60.30;5.60;;;8.70;1.00;;;;;;5134867;27;20237;-68
2021/04/14 09:13:35;;;;;;;59.83;5.10;;;8.90;1.00;;;;;;5134231;27;20814;-67
2021/04/14 09:16:03;;;;;;;58.97;4.67;;;9.00;1.00;;;;;;5134288;27;20448;-67
2021/04/14 09:18:33;;;;;;;59.10;5.33;;;9.10;1.00;;;;;;5134415;27;20517;-67
2021/04/14 09:21:15;;;;;;;59.83;4.50;;;9.20;1.00;;;;;;5134078;27;20487;-67
2021/04/14 09:23:54;;;;;;;58.97;5.10;;;9.30;1.00;;;;;;5134180;27;20527;-67
2021/04/14 09:26:29;;;;;;;58.03;4.60;;;9.40;1.00;;;;;;5134233;27;20239;-67
2021/04/14 09:28:56;;;;;;;57.70;4.27;;;9.60;1.00;;;;;;5133901;27;20982;-68
2021/04/14 09:31:39;;;;;;;57.63;3.87;;;9.60;1.00;;;;;;5134184;27;20438;-67
2021/04/14 09:34:16;;;;;;;57.87;4.07;;;9.50;1.00;;;;;;5133925;27;20600;-67
2021/04/14 09:36:47;;;;;;;57.77;4.03;;;9.50;1.00;;;;;;5133860;27;20441;-68
2021/04/14 09:39:29;;;;;;;57.57;3.53;;;9.60;1.00;;;;;;5133491;27;20548;-67
2021/04/14 09:41:55;;;;;;;56.50;3.57;;;9.70;1.00;;;;;;5133850;27;20578;-67
2021/04/14 09:44:36;;;;;;;60.27;4.60;;;9.80;1.00;;;;;;5133936;27;20817;-67
2021/04/14 09:47:18;;;;;;;57.37;3.80;;;9.80;1.00;;;;;;5134161;27;20474;-67
2021/04/14 09:49:47;;;;;;;56.93;3.60;;;9.90;1.00;;;;;;5121212;27;20475;-67
2021/04/14 09:52:26;;;;;;;57.80;3.67;;;10.00;1.00;;;;;;5133844;27;20867;-68
2021/04/14 09:54:57;;;;;;;57.50;3.90;;;10.10;1.00;;;;;;5133817;27;20534;-68
2021/04/14 09:57:29;;;;;;;58.67;4.23;;;10.30;1.00;;;;;;5133559;27;20474;-67
2021/04/14 09:59:57;;;;;;;60.70;4.70;;;10.30;1.00;;;;;;5133331;27;21056;-67
2021/04/14 10:02:25;;;;;;;57.53;3.90;;;10.30;1.00;;;;;;5133143;27;20475;-67
2021/04/14 10:04:53;;;;;;;59.47;3.43;;;10.20;1.00;;;;;;5133446;27;20482;-67
2021/04/14 10:07:23;;;;;;;58.70;3.17;;;10.00;1.00;;;;;;5133273;27;20453;-67
2021/04/14 10:09:49;;;;;;;59.20;3.50;;;9.70;1.00;;;;;;5133175;27;20472;-67
2021/04/14 10:12:19;;;;;;;56.87;4.00;;;9.40;1.00;;;;;;5133114;27;20505;-67
2021/04/14 10:14:48;;;;;;;57.60;4.05;;;9.00;1.00;;;;;;5133185;27;20497;-67
2021/04/14 10:17:18;;;;;;;58.53;3.95;;;8.60;1.00;;;;;;5133388;27;20635;-67
2021/04/14 10:19:44;;;;;;;57.47;3.88;;;8.20;1.00;;;;;;5132937;27;20233;-68
2021/04/14 10:22:16;;;;;;;60.35;4.30;;;8.00;1.00;;;;;;5132866;27;20323;-67
2021/04/14 10:24:43;;;;;;;57.47;4.05;;;7.80;1.00;;;;;;5132677;27;20283;-67
2021/04/14 10:27:10;;;;;;;57.03;3.97;;;7.60;1.00;;;;;;5132951;27;20241;-67
2021/04/14 10:29:42;;;;;;;58.90;4.22;;;7.50;1.00;;;;;;5132817;27;20305;-67
2021/04/14 10:32:16;;;;;;;57.40;4.70;;;7.30;1.00;;;;;;5133065;27;20286;-67
2021/04/14 10:34:44;;;;;;;59.80;4.13;;;7.30;1.00;;;;;;5133365;27;20232;-67
2021/04/14 10:37:17;;;;;;;58.05;4.40;;;7.30;1.00;;;;;;5132788;27;20245;-69
2021/04/14 10:39:45;;;;;;;57.35;4.20;;;7.30;1.00;;;;;;5132650;27;20227;-67
2021/04/14 10:42:14;;;;;;;59.08;4.78;;;7.20;1.00;;;;;;5132858;27;20219;-68
2021/04/14 10:44:41;;;;;;;57.63;4.78;;;7.10;1.00;;;;;;5132795;27;20679;-67
2021/04/14 10:47:11;;;;;;;59.65;4.93;;;6.90;1.00;;;;;;5132789;27;20203;-67
2021/04/14 10:49:38;;;;;;;58.38;5.22;;;6.70;1.00;;;;;;5132677;27;20250;-67
2021/04/14 10:52:12;;;;;;;57.67;4.70;;;6.60;1.00;;;;;;5132677;27;20290;-67
2021/04/14 10:54:42;;;;;;;59.15;4.90;;;6.60;1.00;;;;;;5132991;27;20365;-68
2021/04/14 10:57:14;;;;;;;58.55;4.95;;;6.70;1.00;;;;;;5132629;27;20667;-67
2021/04/14 10:59:41;;;;;;;57.88;5.20;;;6.60;1.00;;;;;;5132917;27;20223;-67
2021/04/14 11:02:18;;;;;;;57.63;3.90;;;6.50;1.00;;;;;;5132496;27;20762;-65
2021/04/14 11:04:45;;;;;;;58.13;4.47;;;6.50;1.00;;;;;;5132471;27;20294;-65
2021/04/14 11:07:17;;;;;;;57.95;4.10;;;6.70;1.00;;;;;;5132724;27;20214;-66
2021/04/14 11:09:45;;;;;;;56.90;3.72;;;6.80;1.00;;;;;;5132512;27;20601;-66
2021/04/14 11:12:14;;;;;;;57.20;3.92;;;7.00;1.00;;;;;;5132317;27;20291;-67
2021/04/14 11:14:46;;;;;;;56.83;3.88;;;7.30;1.00;;;;;;5132612;27;20629;-66
2021/04/14 11:17:19;;;;;;;56.78;3.60;;;7.60;1.00;;;;;;5132358;27;20294;-66
2021/04/14 11:19:53;;;;;;;56.97;3.78;;;7.80;1.00;;;;;;5132697;27;20572;-66
2021/04/14 11:22:21;;;;;;;56.50;3.20;;;8.00;1.00;;;;;;5132218;27;20710;-67
2021/04/14 11:24:50;;;;;;;56.90;3.22;;;8.20;1.00;;;;;;5132791;27;20261;-67
2021/04/14 11:27:20;;;;;;;58.13;3.90;;;8.50;1.00;;;;;;5132353;27;20299;-67
2021/04/14 11:29:48;;;;;;;57.78;3.60;;;8.70;1.00;;;;;;5132266;27;20256;-66
2021/04/14 11:32:19;;;;;;;57.40;3.67;;;8.90;1.00;;;;;;5132154;27;20286;-67
2021/04/14 11:34:56;;;;;;;59.23;3.87;;;9.20;1.00;;;;;;5132522;27;20221;-66
2021/04/14 11:37:33;;;;;;;59.87;4.70;;;9.30;1.00;;;;;;5133667;27;20536;-67
2021/04/14 11:40:01;;;;;;;57.67;4.00;;;9.50;1.00;;;;;;5136019;27;20997;-67
2021/04/14 11:42:39;;;;;;;58.70;4.20;;;9.60;1.00;;;;;;5136032;27;21053;-67
2021/04/14 11:45:08;;;;;;;57.10;4.40;;;9.70;1.00;;;;;;5136238;27;20528;-68
2021/04/14 11:47:36;;;;;;;56.80;3.50;;;9.90;1.00;;;;;;5136153;27;20529;-68
2021/04/14 11:50:11;;;;;;;57.03;3.67;;;10.20;1.00;;;;;;5136106;27;20521;-68
2021/04/14 11:52:43;;;;;;;58.20;3.80;;;10.60;1.00;;;;;;5135692;27;20943;-67
2021/04/14 11:55:13;;;;;;;56.80;3.60;;;10.80;1.00;;;;;;5135779;27;20542;-66
2021/04/14 11:57:42;;;;;;;58.20;3.63;;;11.10;1.00;;;;;;5135867;27;20446;-66
2021/04/14 12:00:27;;;;;;;56.70;4.00;;;11.40;1.00;;;;;;5135822;27;20546;-67
2021/04/14 12:02:57;;;;;;;58.87;4.73;;;11.70;1.00;;;;;;5135454;27;20539;-67
2021/04/14 12:05:24;;;;;;;57.50;3.70;;;11.90;1.00;;;;;;5135615;27;20530;-66
2021/04/14 12:07:50;;;;;;;57.70;3.80;;;12.00;1.00;;;;;;5135685;27;21000;-66
2021/04/14 12:10:17;;;;;;;57.27;3.50;;;12.20;1.00;;;;;;5135650;27;20525;-67
2021/04/14 12:12:43;;;;;;;58.60;3.83;;;12.20;1.00;;;;;;5135518;27;20527;-67
2021/04/14 12:15:11;;;;;;;59.00;3.87;;;12.40;1.00;;;;;;5135593;27;20471;-67
2021/04/14 12:17:39;;;;;;;59.70;3.93;;;12.50;1.00;;;;;;5135497;27;20921;-67
2021/04/14 12:20:06;;;;;;;56.77;3.30;;;12.50;1.00;;;;;;5135524;27;20547;-67
2021/04/14 12:22:33;;;;;;;58.40;3.90;;;12.70;1.00;;;;;;5135183;27;20492;-67
2021/04/14 12:25:00;;;;;;;71.37;4.80;;;12.80;1.00;;;;;;5135450;27;20499;-67
2021/04/14 12:27:26;;;;;;;58.57;4.20;;;12.80;1.00;;;;;;5135392;27;20444;-66
2021/04/14 12:29:52;;;;;;;57.10;3.80;;;12.50;1.00;;;;;;5134993;27;20555;-66
2021/04/14 12:32:20;;;;;;;57.43;4.17;;;12.10;1.00;;;;;;5135014;27;21012;-66
2021/04/14 12:34:47;;;;;;;59.20;4.80;;;11.70;1.00;;;;;;5135363;27;20447;-67
2021/04/14 12:37:14;;;;;;;59.60;4.43;;;11.30;1.00;;;;;;5134796;27;20543;-67
2021/04/14 12:39:42;;;;;;;58.43;4.27;;;11.00;1.00;;;;;;5135367;27;20478;-67
2021/04/14 12:42:08;;;;;;;58.23;4.40;;;10.70;1.00;;;;;;5134839;27;20478;-67
2021/04/14 12:44:34;;;;;;;57.37;4.07;;;10.40;1.00;;;;;;5134814;27;20479;-65
2021/04/14 12:47:01;;;;;;;59.07;4.67;;;10.20;1.00;;;;;;5135108;27;20479;-66
2021/04/14 12:49:27;;;;;;;59.93;4.47;;;10.10;1.00;;;;;;5134522;27;20516;-66
2021/04/14 12:51:56;;;;;;;59.47;4.57;;;10.10;1.00;;;;;;5134754;27;20457;-66
2021/04/14 12:54:30;;;;;;;57.10;4.50;;;10.30;1.00;;;;;;5134647;27;20487;-66
2021/04/14 12:56:59;;;;;;;58.43;4.10;;;10.60;1.00;;;;;;5134745;27;20500;-66
2021/04/14 12:59:29;;;;;;;57.77;4.10;;;11.00;1.00;;;;;;5134500;27;20558;-67
2021/04/14 13:02:04;;;;;;;60.20;4.97;;;11.40;1.00;;;;;;5135006;27;20567;-67